Latest Weather Observations for Moorabbin Airport

IDV60901

Issued at 8:11 am EDT Sunday 22 October 2017 (issued every 10 minutes, with the page automatically refreshed every 10 minutes)

About weather observations | Map of Melbourne area stations | Latest observations for Melbourne area | Other Formats
Station Details ID: 086077 Name: MOORABBIN AIRPORT Lat: -37.98 Lon: 145.10 Height: 12.1 m
Data from the previous 72 hours. | See also: Recent months at Moorabbin Airport
Date/Time
EDT
Temp
°C
App
Temp
°C
Dew
Point
°C
Rel
Hum
%
Delta-T
°C
Wind Press
QNH
hPa
Press
MSL
hPa
Rain since
9am
mm
Dir  Spd
km/h
Gust
km/h
Spd
kts
Gust
kts
22/08:00am 12.6 9.3 9.6 82 1.5 WSW 17 24 9 13 1018.1 1018.1 0.4
22/07:30am 12.1 9.2 9.5 84 1.3 WSW 15 26 8 14 1018.0 1018.0 0.4
22/07:00am 11.9 8.6 9.5 85 1.2 WSW 17 26 9 14 1017.8 1017.8 0.4
22/06:59am 11.9 8.6 9.5 85 1.2 WSW 17 26 9 14 1017.8 1017.8 0.4
22/06:54am 11.9 9.0 9.5 85 1.2 WSW 15 26 8 14 1017.7 1017.7 0.4
22/06:30am 11.8 8.5 9.4 85 1.2 SW 17 26 9 14 1017.7 1017.7 0.4
22/06:07am 11.6 8.5 8.8 83 1.4 WSW 15 22 8 12 1017.6 1017.6 0.4
22/06:00am 11.8 8.7 9.0 83 1.4 WSW 15 26 8 14 1017.6 1017.6 0.4
22/05:30am 11.6 8.2 9.0 84 1.3 WSW 17 22 9 12 1017.6 1017.6 0.4
22/05:24am 11.8 8.3 8.8 82 1.5 WSW 17 24 9 13 1017.5 1017.5 0.4
22/05:06am 11.9 8.5 9.1 83 1.4 WSW 17 24 9 13 1017.7 1017.7 0.4
22/05:02am 11.8 8.0 9.0 83 1.4 WSW 19 24 10 13 1017.7 1017.7 0.4
22/05:00am 11.8 8.0 9.0 83 1.4 WSW 19 24 10 13 1017.7 1017.7 0.4
22/04:38am 11.8 8.0 9.0 83 1.4 WSW 19 28 10 15 1017.8 1017.8 0.4
22/04:30am 11.9 7.9 9.1 83 1.4 WSW 20 28 11 15 1017.9 1017.9 0.4
22/04:01am 11.8 8.4 9.2 84 1.3 WSW 17 24 9 13 1018.1 1018.1 0.4
22/04:00am 11.8 8.4 9.2 84 1.3 WSW 17 24 9 13 1018.2 1018.2 0.4
22/03:30am 11.2 7.7 8.8 85 1.2 W 17 22 9 12 1018.2 1018.2 0.4
22/03:00am 11.4 7.9 8.6 83 1.4 WSW 17 30 9 16 1018.8 1018.8 0.4
22/02:54am 11.4 7.2 8.3 81 1.5 WSW 20 30 11 16 1019.0 1019.0 0.4
22/02:30am 12.1 9.2 8.0 76 2.0 WSW 13 19 7 10 1019.0 1019.0 0.4
22/02:00am 12.6 9.1 7.1 69 2.6 WSW 15 24 8 13 1019.4 1019.4 0.4
22/01:30am 12.4 8.5 6.9 69 2.6 WSW 17 24 9 13 1019.7 1019.7 0.4
22/01:00am 12.5 9.5 7.6 72 2.4 WSW 13 17 7 9 1020.1 1020.1 0.4
22/12:30am 12.6 9.2 7.7 72 2.4 WSW 15 30 8 16 1020.3 1020.3 0.4
22/12:00am 12.5 9.6 8.2 75 2.1 WSW 13 20 7 11 1020.4 1020.4 0.4
 
Date/Time
EDT
Temp
°C
App
Temp
°C
Dew
Point
°C
Rel
Hum
%
Delta-T
°C
Wind Press
QNH
hPa
Press
MSL
hPa
Rain since
9am
mm
Dir  Spd
km/h
Gust
km/h
Spd
kts
Gust
kts
21/11:30pm 12.7 9.0 8.0 73 2.3 WSW 17 24 9 13 1020.7 1020.7 0.4
21/11:00pm 12.8 9.2 8.5 75 2.1 SW 17 30 9 16 1020.8 1020.8 0.4
21/10:30pm 12.6 9.2 9.1 79 1.8 SW 17 24 9 13 1021.1 1021.1 0.4
21/10:00pm 12.8 9.7 8.7 76 2.0 SW 15 28 8 15 1021.3 1021.3 0.4
21/09:30pm 12.7 8.5 8.2 74 2.2 SW 20 32 11 17 1021.6 1021.6 0.4
21/09:00pm 13.2 8.5 7.6 69 2.7 SW 22 30 12 16 1021.6 1021.6 0.4
21/08:30pm 13.0 8.8 8.3 73 2.3 SSW 20 28 11 15 1021.7 1021.7 0.4
21/08:00pm 12.9 8.6 7.8 71 2.5 SSW 20 32 11 17 1021.7 1021.7 0.4
21/07:30pm 12.7 8.1 8.0 73 2.3 SW 22 32 12 17 1021.8 1021.8 0.4
21/07:00pm 13.3 9.3 8.4 72 2.4 SSW 19 28 10 15 1021.7 1021.7 0.4
21/06:30pm 13.4 8.8 8.0 70 2.7 SSW 22 30 12 16 1021.7 1021.7 0.4
21/06:00pm 13.6 9.0 8.0 69 2.8 SSW 22 32 12 17 1021.8 1021.8 0.4
21/05:30pm 14.3 10.0 8.0 66 3.1 SSW 20 28 11 15 1022.0 1022.0 0.4
21/05:00pm 14.1 9.4 7.6 65 3.2 SSW 22 30 12 16 1022.2 1022.2 0.4
21/04:30pm 14.3 10.2 7.8 65 3.2 SSW 19 24 10 13 1022.4 1022.4 0.2
21/04:00pm 14.4 10.1 7.7 64 3.3 SSW 20 26 11 14 1022.6 1022.6 0.2
21/03:30pm 14.8 10.4 7.6 62 3.6 SW 20 32 11 17 1022.8 1022.8 0.2
21/03:00pm 14.3 9.9 7.4 63 3.4 SW 20 30 11 16 1023.2 1023.2 0.2
21/02:30pm 14.2 9.5 7.9 66 3.1 SW 22 35 12 19 1023.7 1023.7 0.2
21/02:00pm 13.9 9.9 8.1 68 2.9 SW 19 26 10 14 1024.0 1024.0 0.2
21/01:30pm 13.8 9.0 7.3 65 3.2 SSW 22 33 12 18 1024.3 1024.3 0.2
21/01:00pm 13.2 7.8 9.5 78 1.9 SSW 28 37 15 20 1024.7 1024.7 0.2
21/12:30pm 12.4 8.5 9.4 82 1.5 SW 20 28 11 15 1025.0 1025.0 0.2
21/12:12pm 11.6 8.0 8.3 80 1.6 WSW 17 32 9 17 1025.3 1025.3 0.2
21/12:00pm 11.9 8.5 7.6 75 2.1 WSW 15 22 8 12 1025.3 1025.3 0.0
21/11:30am 12.0 7.4 8.3 78 1.8 WSW 22 30 12 16 1025.7 1025.7 0.0
21/11:00am 13.3 9.4 7.3 67 2.9 WSW 17 26 9 14 1025.6 1025.6 0.0
21/10:30am 12.3 8.3 6.6 68 2.7 SW 17 32 9 17 1025.8 1025.8 0.0
21/10:00am 12.0 9.0 7.9 76 2.0 WSW 13 20 7 11 1025.9 1025.9 0.0
21/09:30am 12.3 9.3 7.6 73 2.3 WSW 13 20 7 11 1025.9 1025.9 0.0
21/09:00am 11.9 8.1 7.6 75 2.1 SW 17 28 9 15 1025.9 1025.9 0.0
21/08:30am 11.7 9.4 7.4 75 2.1 WSW 9 15 5 8 1025.9 1025.9 0.0
21/08:00am 11.4 7.5 7.1 75 2.0 SW 17 24 9 13 1025.9 1025.9 0.0
21/07:30am 11.7 9.6 6.6 71 2.4 SE 7 15 4 8 1025.8 1025.8 0.0
21/07:00am 11.7 8.8 6.4 70 2.5 S 11 17 6 9 1026.0 1026.0 0.0
21/06:30am 11.6 8.3 6.5 71 2.4 S 13 20 7 11 1025.9 1025.9 0.0
21/06:00am 11.8 7.3 6.3 69 2.6 SW 19 26 10 14 1026.0 1026.0 0.0
21/05:30am 12.0 8.1 5.2 63 3.1 SSW 15 20 8 11 1025.9 1025.9 0.0
21/05:00am 11.8 7.8 4.8 62 3.2 SW 15 24 8 13 1026.0 1026.0 0.0
21/04:30am 12.1 7.1 4.8 61 3.3 SSW 20 28 11 15 1026.2 1026.2 0.0
21/04:00am 12.2 7.4 4.9 61 3.3 SW 19 24 10 13 1026.3 1026.3 0.0
21/03:30am 12.2 7.9 5.1 62 3.3 SSW 17 22 9 12 1026.6 1026.6 0.0
21/03:00am 12.1 8.5 5.0 62 3.2 SSW 13 20 7 11 1026.8 1026.8 0.0
21/02:30am 12.0 8.3 4.7 61 3.3 S 13 19 7 10 1027.1 1027.1 0.0
21/02:00am 11.9 8.2 4.4 60 3.4 S 13 19 7 10 1027.4 1027.4 0.0
21/01:30am 11.9 8.2 4.2 59 3.5 S 13 22 7 12 1027.7 1027.7 0.0
21/01:00am 12.0 7.5 4.2 59 3.5 S 17 24 9 13 1028.1 1028.1 0.0
21/12:30am 12.1 7.2 4.3 59 3.5 S 19 26 10 14 1028.3 1028.3 0.0
21/12:00am 12.3 7.3 3.8 56 3.8 SSW 19 32 10 17 1028.4 1028.4 0.0
 
Date/Time
EDT
Temp
°C
App
Temp
°C
Dew
Point
°C
Rel
Hum
%
Delta-T
°C
Wind Press
QNH
hPa
Press
MSL
hPa
Rain since
9am
mm
Dir  Spd
km/h
Gust
km/h
Spd
kts
Gust
kts
20/11:30pm 12.2 8.1 4.4 59 3.5 S 15 20 8 11 1028.6 1028.6 0.0
20/11:00pm 12.4 7.5 4.1 57 3.7 SSW 19 28 10 15 1028.8 1028.8 0.0
20/10:30pm 12.5 7.8 5.0 60 3.5 SSW 19 32 10 17 1028.9 1028.9 0.0
20/10:00pm 12.3 7.1 3.8 56 3.8 S 20 30 11 16 1029.1 1029.1 0.0
20/09:30pm 12.5 7.4 4.2 57 3.8 SSW 20 28 11 15 1029.1 1029.1 0.0
20/09:00pm 12.7 7.6 4.2 56 3.8 SSW 20 30 11 16 1029.1 1029.1 0.0
20/08:30pm 12.8 7.4 4.5 57 3.8 SSW 22 33 12 18 1028.8 1028.8 0.0
20/08:00pm 13.0 7.9 5.9 62 3.3 SSW 22 32 12 17 1028.5 1028.5 0.0
20/07:30pm 12.9 7.1 6.3 64 3.1 SSW 26 37 14 20 1028.2 1028.2 0.0
20/07:00pm 13.5 7.2 5.7 59 3.7 SSW 28 39 15 21 1028.1 1028.1 0.0
20/06:30pm 14.0 7.5 4.6 53 4.3 SSW 28 39 15 21 1028.1 1028.1 0.0
20/06:00pm 14.0 7.1 4.6 53 4.3 SSW 30 39 16 21 1028.0 1028.0 0.0
20/05:30pm 14.8 8.3 2.4 43 5.5 SSW 26 41 14 22 1027.7 1027.7 0.0
20/05:00pm 14.6 8.1 4.9 52 4.5 SSW 28 41 15 22 1027.7 1027.7 0.0
20/04:30pm 15.1 8.3 5.3 52 4.6 SSW 30 37 16 20 1027.6 1027.6 0.0
20/04:00pm 15.3 8.6 5.8 53 4.5 SSW 30 41 16 22 1027.6 1027.6 0.0
20/03:30pm 16.1 9.1 6.0 51 4.9 SSW 32 43 17 23 1027.6 1027.6 0.0
20/03:00pm 15.0 8.0 5.8 54 4.4 SSW 32 43 17 23 1027.8 1027.8 0.0
20/02:30pm 15.7 9.0 7.2 57 4.2 SW 32 44 17 24 1028.0 1028.0 0.0
20/02:00pm 15.8 8.4 4.8 48 5.1 SW 33 44 18 24 1028.0 1028.0 0.0
20/01:30pm 15.6 8.6 4.3 47 5.3 SSW 30 43 16 23 1027.9 1027.9 0.0
20/01:00pm 16.1 9.9 6.0 51 4.9 SSW 28 41 15 22 1027.8 1027.8 0.0
20/12:30pm 16.0 9.9 6.4 53 4.7 SSW 28 39 15 21 1027.7 1027.7 0.0
20/12:24pm 16.1 10.2 7.3 56 4.4 SSW 28 46 15 25 1027.8 1027.8 0.0
20/12:00pm 15.2 9.6 7.0 58 4.0 SSW 26 41 14 22 1027.9 1027.9 0.0
20/11:30am 15.4 9.8 7.2 58 4.0 SSW 26 39 14 21 1027.8 1027.8 0.0
20/11:00am 15.3 9.1 6.1 54 4.4 SSW 28 35 15 19 1027.8 1027.8 0.0
20/10:30am 14.9 8.8 6.7 58 4.0 SSW 28 37 15 20 1027.7 1027.7 0.0
20/10:00am 14.8 9.0 6.4 57 4.0 SSW 26 35 14 19 1027.5 1027.5 0.0
20/09:30am 14.9 10.0 5.1 52 4.6 SSW 20 30 11 16 1027.2 1027.2 0.0
20/09:00am 14.2 8.6 3.7 49 4.7 S 22 32 12 17 1026.9 1026.9 4.4
20/08:30am 13.9 7.8 4.8 54 4.2 SSW 26 33 14 18 1026.6 1026.6 4.4
20/08:00am 12.9 6.6 3.6 53 4.1 SSW 26 33 14 18 1026.4 1026.4 4.4
20/07:30am 13.1 7.4 4.8 57 3.8 SSW 24 37 13 20 1026.0 1026.0 4.4
20/07:00am 13.0 7.4 5.4 60 3.5 SSW 24 35 13 19 1025.7 1025.7 4.4
20/06:30am 12.9 6.9 3.6 53 4.2 SW 24 35 13 19 1025.2 1025.2 4.4
20/06:00am 12.4 7.5 8.3 76 2.0 SW 24 33 13 18 1024.8 1024.8 4.4
20/05:30am 12.7 9.2 8.8 77 2.0 WSW 17 28 9 15 1024.3 1024.3 4.4
20/05:00am 13.0 8.7 7.9 71 2.5 WSW 20 30 11 16 1024.0 1024.0 4.4
20/04:30am 12.5 9.8 9.0 79 1.8 W 13 22 7 12 1023.8 1023.8 4.4
20/04:00am 12.2 9.1 8.7 79 1.7 W 15 24 8 13 1023.6 1023.6 4.4
20/03:30am 11.6 9.0 7.7 77 1.9 WNW 11 13 6 7 1023.6 1023.6 4.4
20/03:00am 12.1 9.8 7.6 74 2.2 NW 9 13 5 7 1023.2 1023.2 4.4
20/02:30am 12.7 9.7 7.8 72 2.4 W 13 17 7 9 1023.5 1023.5 4.4
20/02:00am 13.7 10.4 7.9 68 2.9 W 15 20 8 11 1023.6 1023.6 4.4
20/01:30am 13.8 10.8 7.8 67 3.0 WNW 13 17 7 9 1023.7 1023.7 4.4
20/01:00am 14.0 10.6 7.8 66 3.1 W 15 24 8 13 1023.7 1023.7 4.4
20/12:30am 13.8 10.6 6.9 63 3.3 W 13 19 7 10 1023.7 1023.7 4.4
20/12:00am 13.6 10.5 7.2 65 3.1 W 13 20 7 11 1024.0 1024.0 4.4
 
Date/Time
EDT
Temp
°C
App
Temp
°C
Dew
Point
°C
Rel
Hum
%
Delta-T
°C
Wind Press
QNH
hPa
Press
MSL
hPa
Rain since
9am
mm
Dir  Spd
km/h
Gust
km/h
Spd
kts
Gust
kts
19/11:30pm 14.0 10.8 6.8 62 3.5 WSW 13 20 7 11 1023.8 1023.8 4.4
19/11:00pm 14.3 11.4 8.3 67 3.0 WSW 13 17 7 9 1023.8 1023.8 4.4
19/10:30pm 14.1 12.9 9.7 75 2.3 WSW 6 9 3 5 1023.7 1023.7 4.4
19/10:00pm 14.1 12.0 9.9 76 2.2 SW 11 15 6 8 1023.6 1023.6 4.4
19/09:30pm 14.5 12.1 10.1 75 2.3 SSW 13 20 7 11 1023.3 1023.3 4.4
19/09:00pm 14.7 10.9 9.7 72 2.6 SW 20 26 11 14 1022.8 1022.8 4.4
19/08:30pm 14.7 10.9 9.7 72 2.6 SSW 20 28 11 15 1022.2 1022.2 4.4
19/08:00pm 15.2 10.8 10.4 73 2.5 SSW 24 35 13 19 1021.3 1021.3 4.4
19/07:30pm 15.0 10.1 9.8 71 2.7 SSW 26 41 14 22 1020.8 1020.8 4.4
19/07:00pm 15.3 10.0 11.1 76 2.2 SSW 30 44 16 24 1020.4 1020.4 4.4
19/06:30pm 15.7 11.0 12.1 79 2.0 SSW 28 46 15 25 1019.2 1019.2 4.4
19/06:26pm 15.8 11.2 12.2 79 2.0 SSW 28 46 15 25 1019.0 1019.0 4.4
19/06:00pm 16.2 11.8 12.9 81 1.8 SSW 28 39 15 21 1018.5 1018.5 4.4
19/05:30pm 16.2 11.6 13.5 84 1.5 SSW 30 43 16 23 1017.7 1017.7 4.4
19/05:00pm 16.6 11.6 14.1 85 1.4 SSW 33 48 18 26 1017.1 1017.1 4.4
19/04:30pm 17.8 12.5 14.3 80 2.0 SW 35 54 19 29 1016.1 1016.1 4.4
19/04:26pm 18.8 14.8 14.1 74 2.7 WSW 28 54 15 29 1015.9 1015.9 4.4
19/04:00pm 21.6 19.9 16.3 72 3.2 WSW 20 28 11 15 1015.7 1015.7 4.4
19/03:30pm 22.9 22.7 17.6 72 3.3 WSW 15 22 8 12 1015.4 1015.4 4.4
19/03:00pm 22.0 22.6 17.6 76 2.7 SW 11 17 6 9 1015.2 1015.2 4.4
19/02:30pm 22.6 22.2 17.1 71 3.4 WSW 15 28 8 15 1015.4 1015.4 4.4
19/02:00pm 24.6 24.9 17.8 66 4.3 NNW 13 20 7 11 1015.2 1015.2 4.4
19/01:30pm 24.7 25.0 19.5 73 3.3 N 17 26 9 14 1015.6 1015.6 4.2
19/01:00pm 21.2 22.6 18.6 85 1.6 NNE 9 13 5 7 1015.6 1015.6 4.2
19/12:30pm 20.1 21.9 18.2 89 1.2 E 6 9 3 5 1015.9 1015.9 4.2
19/12:00pm 19.2 20.7 17.7 91 0.9 SSE 6 7 3 4 1016.1 1016.1 4.2
19/11:30am 18.6 20.2 16.8 89 1.1 E 4 9 2 5 1016.5 1016.5 3.4
19/11:00am 18.0 17.7 15.4 85 1.5 SW 11 17 6 9 1016.8 1016.8 2.6
19/10:30am 20.2 20.1 17.0 82 1.9 SW 13 20 7 11 1016.5 1016.5 0.0
19/10:00am 18.0 15.9 15.3 84 1.6 WSW 20 28 11 15 1016.7 1016.7 0.0
19/09:30am 19.3 17.8 14.3 73 2.9 SW 15 24 8 13 1016.3 1016.3 0.0
19/09:00am 23.8 19.1 12.1 48 6.6 NNW 28 41 15 22 1015.4 1015.4 0.0
19/08:30am 24.2 19.4 11.5 45 7.2 NNW 28 43 15 23 1015.1 1015.1 0.0

Latest Capital City Observations: Canberra | Sydney | Melbourne | Brisbane | Adelaide | Perth | Hobart | Darwin

Other Formats:

Comma delimited format used in spreadsheet applications
http://www.bom.gov.au/fwo/IDV60901/IDV60901.94870.axf

JavaScript Object Notation format (JSON) in row-major order
http://www.bom.gov.au/fwo/IDV60901/IDV60901.94870.json